Time;durP1;ratioP1;P1;durP2;ratioP2;P2;SDS_P1;SDS_P2;PMS_P1;PMS_P2;Temp;Humidity;BMP_temperature;BMP_pressure;BME280_temperature;BME280_humidity;BME280_pressure;Samples;Min_cycle;Max_cycle;Signal;HPM_P1;HPM_P2
2021/03/26 00:01:23;;;;;;;15.20;11.70;;;;;;;;;;5013944;28;20292;-69
2021/03/26 00:04:07;;;;;;;15.83;12.60;;;;;;;;;;5013381;28;20213;-69
2021/03/26 00:06:53;;;;;;;14.80;12.90;;;;;;;;;;5012735;28;20282;-69
2021/03/26 00:09:38;;;;;;;18.90;12.83;;;;;;;;;;5014089;28;20711;-69
2021/03/26 00:12:22;;;;;;;17.20;12.23;;;;;;;;;;5013428;28;20201;-69
2021/03/26 00:15:08;;;;;;;18.05;13.35;;;;;;;;;;5013629;28;20475;-69
2021/03/26 00:17:53;;;;;;;16.10;13.57;;;;;;;;;;5013387;28;20260;-68
2021/03/26 00:20:37;;;;;;;20.77;15.50;;;;;;;;;;5008561;28;20248;-68
2021/03/26 00:23:22;;;;;;;20.77;15.83;;;;;;;;;;5013776;28;20200;-68
2021/03/26 00:26:07;;;;;;;19.67;17.47;;;;;;;;;;5012539;28;20652;-70
2021/03/26 00:28:52;;;;;;;25.02;21.92;;;;;;;;;;5012631;28;20429;-69
2021/03/26 00:31:36;;;;;;;24.23;21.50;;;;;;;;;;5012523;28;20256;-69
2021/03/26 00:34:20;;;;;;;24.53;20.37;;;;;;;;;;5013240;28;20204;-70
2021/03/26 00:37:05;;;;;;;23.80;20.30;;;;;;;;;;5012484;28;20243;-69
2021/03/26 00:39:49;;;;;;;22.87;19.67;;;;;;;;;;5013416;28;20226;-69
2021/03/26 00:42:35;;;;;;;23.63;19.10;;;;;;;;;;4998377;28;20240;-69
2021/03/26 00:45:21;;;;;;;21.60;19.07;;;;;;;;;;5012640;28;20845;-69
2021/03/26 00:48:06;;;;;;;27.83;21.83;;;;;;;;;;5012672;28;20213;-69
2021/03/26 00:50:52;;;;;;;23.80;21.23;;;;;;;;;;5012913;28;20725;-69
2021/03/26 00:53:36;;;;;;;25.07;20.90;;;;;;;;;;5013265;28;20264;-69
2021/03/26 00:56:21;;;;;;;27.83;20.60;;;;;;;;;;5011550;28;20223;-69
2021/03/26 00:59:06;;;;;;;27.07;23.03;;;;;;;;;;5013391;28;20742;-69
2021/03/26 01:01:51;;;;;;;26.43;22.80;;;;;;;;;;5012435;28;20286;-70
2021/03/26 01:04:35;;;;;;;31.17;25.93;;;;;;;;;;5012084;28;20289;-69
2021/03/26 01:07:19;;;;;;;27.83;24.73;;;;;;;;;;5012404;28;20587;-70
2021/03/26 01:10:05;;;;;;;28.20;24.40;;;;;;;;;;5012438;28;20207;-69
2021/03/26 01:12:50;;;;;;;29.47;23.80;;;;;;;;;;5012305;28;20787;-69
2021/03/26 01:15:35;;;;;;;31.83;28.63;;;;;;;;;;5011677;28;20933;-69
2021/03/26 01:18:22;;;;;;;34.80;29.87;;;;;;;;;;5012626;28;20473;-70
2021/03/26 01:21:07;;;;;;;31.27;26.97;;;;;;;;;;5011820;28;20299;-69
2021/03/26 01:23:52;;;;;;;33.77;28.13;;;;;;;;;;5012436;28;20204;-69
2021/03/26 01:26:36;;;;;;;32.57;28.27;;;;;;;;;;5011585;28;20227;-69
2021/03/26 01:29:20;;;;;;;31.33;27.77;;;;;;;;;;5012363;28;20255;-69
2021/03/26 01:32:07;;;;;;;32.37;26.77;;;;;;;;;;5012201;28;20242;-69
2021/03/26 01:34:51;;;;;;;33.87;29.57;;;;;;;;;;5011642;28;20216;-69
2021/03/26 01:37:36;;;;;;;30.87;27.50;;;;;;;;;;5011781;28;20207;-69
2021/03/26 01:40:22;;;;;;;33.80;29.43;;;;;;;;;;5011942;28;20203;-69
2021/03/26 01:43:09;;;;;;;34.97;30.40;;;;;;;;;;5012299;28;20808;-69
2021/03/26 01:45:54;;;;;;;33.00;29.37;;;;;;;;;;5010866;28;20642;-69
2021/03/26 01:48:40;;;;;;;32.53;28.53;;;;;;;;;;5012241;28;20657;-69
2021/03/26 01:51:26;;;;;;;34.70;29.70;;;;;;;;;;5011514;28;20340;-69
2021/03/26 01:54:12;;;;;;;32.63;28.00;;;;;;;;;;5011785;28;20205;-69
2021/03/26 01:56:56;;;;;;;32.17;28.77;;;;;;;;;;5011303;28;20216;-69
2021/03/26 01:59:41;;;;;;;34.70;30.98;;;;;;;;;;5011277;28;20419;-70
2021/03/26 02:02:25;;;;;;;34.40;29.50;;;;;;;;;;5011580;28;20251;-69
2021/03/26 02:05:24;;;;;;;35.13;27.57;;;;;;;;;;5011012;28;20686;-69
2021/03/26 02:08:10;;;;;;;32.40;27.53;;;;;;;;;;5011175;28;20259;-70
2021/03/26 02:10:55;;;;;;;31.77;27.17;;;;;;;;;;5011257;28;20206;-69
2021/03/26 02:13:40;;;;;;;31.07;27.67;;;;;;;;;;5011597;28;20202;-69
2021/03/26 02:16:25;;;;;;;32.10;28.60;;;;;;;;;;5010803;28;20232;-70
2021/03/26 02:19:10;;;;;;;34.13;28.67;;;;;;;;;;5011137;28;20208;-69
2021/03/26 02:21:56;;;;;;;34.50;29.17;;;;;;;;;;5010911;28;20208;-70
2021/03/26 02:24:42;;;;;;;36.63;29.97;;;;;;;;;;5011194;28;20225;-69
2021/03/26 02:27:27;;;;;;;34.63;28.07;;;;;;;;;;5010769;28;20259;-69
2021/03/26 02:30:14;;;;;;;33.27;29.37;;;;;;;;;;5010777;28;20216;-70
2021/03/26 02:32:58;;;;;;;41.65;37.15;;;;;;;;;;5010527;28;20415;-68
2021/03/26 02:35:44;;;;;;;38.30;33.83;;;;;;;;;;5010337;28;20231;-69
2021/03/26 02:38:31;;;;;;;36.60;32.27;;;;;;;;;;5011222;28;20207;-69
2021/03/26 02:41:21;;;;;;;32.43;28.70;;;;;;;;;;5011045;28;20207;-70
2021/03/26 02:44:10;;;;;;;35.80;30.13;;;;;;;;;;5011213;28;20678;-69
2021/03/26 02:46:59;;;;;;;42.03;37.53;;;;;;;;;;5009428;28;20443;-70
2021/03/26 02:49:45;;;;;;;36.43;31.40;;;;;;;;;;5010923;28;20453;-69
2021/03/26 02:52:32;;;;;;;36.10;28.63;;;;;;;;;;5010848;28;20202;-69
2021/03/26 02:55:20;;;;;;;32.50;28.97;;;;;;;;;;5010874;28;20235;-70
2021/03/26 02:58:06;;;;;;;37.93;29.40;;;;;;;;;;5010408;28;20991;-69
2021/03/26 03:00:53;;;;;;;35.13;27.87;;;;;;;;;;5009281;28;20674;-69
2021/03/26 03:03:38;;;;;;;33.97;28.73;;;;;;;;;;5010956;28;20236;-69
2021/03/26 03:06:25;;;;;;;36.17;30.83;;;;;;;;;;5010130;28;20721;-68
2021/03/26 03:09:12;;;;;;;36.97;31.83;;;;;;;;;;5010583;28;20214;-69
2021/03/26 03:11:58;;;;;;;38.87;31.63;;;;;;;;;;5010852;28;20240;-69
2021/03/26 03:14:46;;;;;;;37.57;32.30;;;;;;;;;;5010774;28;20214;-69
2021/03/26 03:17:35;;;;;;;40.97;33.50;;;;;;;;;;5004710;28;20205;-69
2021/03/26 03:20:22;;;;;;;41.23;34.90;;;;;;;;;;4992377;28;20205;-69
2021/03/26 03:23:10;;;;;;;43.07;35.03;;;;;;;;;;4994901;28;20573;-69
2021/03/26 03:25:57;;;;;;;48.37;36.03;;;;;;;;;;4994464;28;20311;-69
2021/03/26 03:28:50;;;;;;;44.10;36.30;;;;;;;;;;4995080;28;20320;-69
2021/03/26 03:31:38;;;;;;;53.45;47.55;;;;;;;;;;4994313;28;20496;-69
2021/03/26 03:34:29;;;;;;;50.47;41.83;;;;;;;;;;4999908;28;20225;-69
2021/03/26 03:37:17;;;;;;;49.87;40.10;;;;;;;;;;5012000;28;20216;-69
2021/03/26 03:40:06;;;;;;;51.07;40.63;;;;;;;;;;5012676;28;20217;-69
2021/03/26 03:42:53;;;;;;;47.40;39.63;;;;;;;;;;5014211;28;20265;-69
2021/03/26 03:45:40;;;;;;;50.57;39.70;;;;;;;;;;5014143;28;20233;-69
2021/03/26 03:48:30;;;;;;;50.70;40.40;;;;;;;;;;5013874;28;20232;-69
2021/03/26 03:51:17;;;;;;;49.83;41.13;;;;;;;;;;5014349;28;20201;-69
2021/03/26 03:54:04;;;;;;;49.60;40.23;;;;;;;;;;5006926;28;20233;-69
2021/03/26 03:56:50;;;;;;;52.73;40.47;;;;;;;;;;4993253;28;20688;-69
2021/03/26 03:59:37;;;;;;;45.37;38.73;;;;;;;;;;4994027;28;20571;-69
2021/03/26 04:02:24;;;;;;;51.57;40.93;;;;;;;;;;4994141;28;20206;-69
2021/03/26 04:05:12;;;;;;;55.03;49.13;;;;;;;;;;4992898;28;20437;-68
2021/03/26 04:07:59;;;;;;;50.07;43.23;;;;;;;;;;4993970;28;20205;-69
2021/03/26 04:10:45;;;;;;;49.60;40.83;;;;;;;;;;4994157;28;20238;-69
2021/03/26 04:13:32;;;;;;;49.43;40.50;;;;;;;;;;4994344;28;20206;-69
2021/03/26 04:16:19;;;;;;;47.07;39.63;;;;;;;;;;4993758;28;20234;-69
2021/03/26 04:19:06;;;;;;;46.50;38.47;;;;;;;;;;4994129;28;20258;-69
2021/03/26 04:21:54;;;;;;;46.73;40.00;;;;;;;;;;4996873;28;20257;-69
2021/03/26 04:24:42;;;;;;;46.40;38.40;;;;;;;;;;5013342;28;20738;-69
2021/03/26 04:27:30;;;;;;;46.70;39.53;;;;;;;;;;5013119;28;20237;-69
2021/03/26 04:30:16;;;;;;;47.03;39.40;;;;;;;;;;5013122;28;20230;-69
2021/03/26 04:33:00;;;;;;;44.90;36.83;;;;;;;;;;5012041;28;20212;-70
2021/03/26 04:35:46;;;;;;;46.00;37.97;;;;;;;;;;4996865;28;20230;-68
2021/03/26 04:38:35;;;;;;;42.60;36.37;;;;;;;;;;5013149;28;20208;-69
2021/03/26 04:41:21;;;;;;;44.93;37.87;;;;;;;;;;5013354;28;20256;-69
2021/03/26 04:44:11;;;;;;;42.13;36.63;;;;;;;;;;5012762;28;20226;-69
2021/03/26 04:46:58;;;;;;;43.93;37.57;;;;;;;;;;5012869;28;20229;-69
2021/03/26 04:49:45;;;;;;;41.13;36.63;;;;;;;;;;5012554;28;20206;-69
2021/03/26 04:52:33;;;;;;;42.33;35.77;;;;;;;;;;5013061;28;20214;-69
2021/03/26 04:55:20;;;;;;;42.93;35.87;;;;;;;;;;5012700;28;20579;-69
2021/03/26 04:58:07;;;;;;;41.37;35.00;;;;;;;;;;5012307;28;20247;-69
2021/03/26 05:00:54;;;;;;;42.97;36.70;;;;;;;;;;5012593;28;20217;-69
2021/03/26 05:03:39;;;;;;;45.97;41.27;;;;;;;;;;5011362;28;20408;-69
2021/03/26 05:06:27;;;;;;;42.60;37.93;;;;;;;;;;5011688;28;20310;-69
2021/03/26 05:09:12;;;;;;;42.17;36.63;;;;;;;;;;5039226;22;20267;-74
2021/03/26 05:12:00;;;;;;;45.70;37.20;;;;;;;;;;5072539;28;20861;-73
2021/03/26 05:14:45;;;;;;;41.23;36.17;;;;;;;;;;5072589;28;20218;-73
2021/03/26 05:17:35;;;;;;;39.93;35.37;;;;;;;;;;5072295;28;20253;-74
2021/03/26 05:20:26;;;;;;;41.80;35.37;;;;;;;;;;5070999;28;20218;-73
2021/03/26 05:23:12;;;;;;;40.63;34.53;;;;;;;;;;5071585;28;20207;-73
2021/03/26 05:25:57;;;;;;;41.73;35.27;;;;;;;;;;5071811;28;20789;-73
2021/03/26 05:28:44;;;;;;;41.40;34.80;;;;;;;;;;5071731;28;20210;-74
2021/03/26 05:31:37;;;;;;;39.50;34.33;;;;;;;;;;5072232;28;20916;-74
2021/03/26 05:34:23;;;;;;;41.03;35.17;;;;;;;;;;5071655;28;20283;-74
2021/03/26 05:37:13;;;;;;;41.87;34.13;;;;;;;;;;5070961;28;20232;-75
2021/03/26 05:40:02;;;;;;;39.77;33.80;;;;;;;;;;5071820;28;20659;-74
2021/03/26 05:42:48;;;;;;;37.53;33.43;;;;;;;;;;5070940;28;20266;-74
2021/03/26 05:45:42;;;;;;;41.73;33.93;;;;;;;;;;5071682;28;20274;-74
2021/03/26 05:48:30;;;;;;;43.33;38.72;;;;;;;;;;5070288;28;20972;-74
2021/03/26 05:51:22;;;;;;;40.30;34.00;;;;;;;;;;5071685;28;20713;-75
2021/03/26 05:54:14;;;;;;;40.00;34.20;;;;;;;;;;5071225;28;20227;-74
2021/03/26 05:57:02;;;;;;;38.47;33.70;;;;;;;;;;5071009;28;20617;-74
2021/03/26 05:59:57;;;;;;;40.43;35.30;;;;;;;;;;5070982;28;20201;-74
2021/03/26 06:02:47;;;;;;;41.10;34.43;;;;;;;;;;5062791;28;20695;-75
2021/03/26 06:05:51;;;;;;;38.73;33.53;;;;;;;;;;5071211;28;20868;-75
2021/03/26 06:08:57;;;;;;;40.60;33.37;;;;;;;;;;5071063;28;20247;-74
2021/03/26 06:11:55;;;;;;;40.40;32.63;;;;;;;;;;5071381;28;20203;-74
2021/03/26 06:14:53;;;;;;;39.30;31.30;;;;;;;;;;5071147;28;20223;-75
2021/03/26 06:18:02;;;;;;;41.10;32.73;;;;;;;;;;5070575;28;20774;-74
2021/03/26 06:20:53;;;;;;;36.00;31.67;;;;;;;;;;5071388;28;20196;-75
2021/03/26 06:23:54;;;;;;;38.53;31.70;;;;;;;;;;5052262;28;20236;-74
2021/03/26 06:26:40;;;;;;;37.57;31.60;;;;;;;;;;5054952;28;20232;-70
2021/03/26 06:29:33;;;;;;;37.00;31.73;;;;;;;;;;5070508;28;20208;-69
2021/03/26 06:32:36;;;;;;;39.20;32.00;;;;;;;;;;5065835;28;20403;-70
2021/03/26 06:35:39;;;;;;;39.30;35.20;;;;;;;;;;5058359;28;20417;-69
2021/03/26 06:38:40;;;;;;;37.47;31.10;;;;;;;;;;5050897;28;20246;-70
2021/03/26 06:41:31;;;;;;;41.67;33.73;;;;;;;;;;5050597;28;20689;-70
2021/03/26 06:44:31;;;;;;;35.20;31.27;;;;;;;;;;5065357;28;20314;-71
2021/03/26 06:47:19;;;;;;;38.53;33.47;;;;;;;;;;5062804;28;20235;-70
2021/03/26 06:50:10;;;;;;;34.77;31.00;;;;;;;;;;5050685;28;20671;-70
2021/03/26 06:53:03;;;;;;;36.33;31.00;;;;;;;;;;5063600;28;20208;-70
2021/03/26 06:55:55;;;;;;;36.77;32.80;;;;;;;;;;5069197;28;20304;-70
2021/03/26 06:59:00;;;;;;;35.53;31.47;;;;;;;;;;5070674;28;20625;-70
2021/03/26 07:02:04;;;;;;;36.77;32.17;;;;;;;;;;5057762;28;20200;-70
2021/03/26 07:05:08;;;;;;;39.33;33.00;;;;;;;;;;5070549;28;20219;-70
2021/03/26 07:08:07;;;;;;;38.27;33.83;;;;;;;;;;5068918;28;20207;-69
2021/03/26 07:10:57;;;;;;;38.80;32.87;;;;;;;;;;5070467;28;20258;-69
2021/03/26 07:13:59;;;;;;;42.20;34.27;;;;;;;;;;5050339;28;20295;-69
2021/03/26 07:17:03;;;;;;;39.70;35.50;;;;;;;;;;5053938;28;20200;-69
2021/03/26 07:20:03;;;;;;;40.37;35.40;;;;;;;;;;5070468;28;20204;-68
2021/03/26 07:23:02;;;;;;;38.23;34.00;;;;;;;;;;5033355;28;20212;-74
2021/03/26 07:25:51;;;;;;;40.20;34.67;;;;;;;;;;5050081;28;20278;-69
2021/03/26 07:28:39;;;;;;;38.27;34.07;;;;;;;;;;5069857;28;20211;-70
2021/03/26 07:31:33;;;;;;;36.93;32.93;;;;;;;;;;5067180;28;20227;-70
2021/03/26 07:34:21;;;;;;;37.47;33.47;;;;;;;;;;5054911;28;20934;-70
2021/03/26 07:37:10;;;;;;;37.23;32.57;;;;;;;;;;5066979;28;20284;-70
2021/03/26 07:39:57;;;;;;;38.67;34.10;;;;;;;;;;5069854;28;20695;-70
2021/03/26 07:42:50;;;;;;;35.43;31.63;;;;;;;;;;5064539;28;20248;-70
2021/03/26 07:45:45;;;;;;;36.37;32.47;;;;;;;;;;5049808;28;20598;-70
2021/03/26 07:48:47;;;;;;;34.80;31.07;;;;;;;;;;5050340;28;20252;-70
2021/03/26 07:51:33;;;;;;;34.90;31.10;;;;;;;;;;5050284;28;20570;-72
2021/03/26 07:54:35;;;;;;;35.13;31.33;;;;;;;;;;5053342;28;20221;-72
2021/03/26 07:57:28;;;;;;;34.83;31.13;;;;;;;;;;5051730;28;20563;-71
2021/03/26 08:00:17;;;;;;;36.03;32.20;;;;;;;;;;5066147;28;20224;-72
2021/03/26 08:03:12;;;;;;;32.30;28.80;;;;;;;;;;5056116;28;20205;-70
2021/03/26 08:06:03;;;;;;;35.30;31.67;;;;;;;;;;5063576;28;21070;-71
2021/03/26 08:08:54;;;;;;;36.20;30.77;;;;;;;;;;5059611;28;20305;-71
2021/03/26 08:11:50;;;;;;;30.77;27.70;;;;;;;;;;5053349;28;20299;-71
2021/03/26 08:15:02;;;;;;;32.77;29.27;;;;;;;;;;5071011;28;20214;-72
2021/03/26 08:17:50;;;;;;;32.03;28.87;;;;;;;;;;5017303;28;20276;-71
2021/03/26 08:20:40;;;;;;;29.37;26.23;;;;;;;;;;5055928;28;20199;-71
2021/03/26 08:23:30;;;;;;;31.17;27.80;;;;;;;;;;5059212;28;20274;-71
2021/03/26 08:26:24;;;;;;;29.37;26.37;;;;;;;;;;5058447;28;20240;-71
2021/03/26 08:29:24;;;;;;;30.80;27.57;;;;;;;;;;5053031;28;20892;-71
2021/03/26 08:32:13;;;;;;;30.17;27.07;;;;;;;;;;5057679;28;20663;-71
2021/03/26 08:35:08;;;;;;;28.73;25.63;;;;;;;;;;5058219;28;20278;-72
2021/03/26 08:38:00;;;;;;;31.33;28.15;;;;;;;;;;5051469;28;20447;-71
2021/03/26 08:40:49;;;;;;;28.07;25.13;;;;;;;;;;5053122;28;20219;-71
2021/03/26 08:43:35;;;;;;;26.77;23.30;;;;;;;;;;5052790;28;20227;-72
2021/03/26 08:46:22;;;;;;;26.20;23.63;;;;;;;;;;5052629;28;20695;-71
2021/03/26 08:49:14;;;;;;;26.63;23.93;;;;;;;;;;5052964;28;20277;-71
2021/03/26 08:52:19;;;;;;;27.90;25.08;;;;;;;;;;5052054;28;20592;-71
2021/03/26 08:55:23;;;;;;;26.23;23.47;;;;;;;;;;5052552;28;20706;-71
2021/03/26 08:58:20;;;;;;;22.80;20.17;;;;;;;;;;5063672;28;20263;-72
2021/03/26 09:01:14;;;;;;;25.50;22.03;;;;;;;;;;5068079;28;20205;-71
2021/03/26 09:04:02;;;;;;;24.47;21.70;;;;;;;;;;5052136;28;20276;-71
2021/03/26 09:06:51;;;;;;;23.90;20.80;;;;;;;;;;5052298;28;20703;-71
2021/03/26 09:09:42;;;;;;;24.00;21.57;;;;;;;;;;5052078;28;20701;-71
2021/03/26 09:12:38;;;;;;;23.67;20.97;;;;;;;;;;5057041;28;20274;-70
2021/03/26 09:15:41;;;;;;;23.77;21.07;;;;;;;;;;5069978;28;20203;-71
2021/03/26 09:18:39;;;;;;;22.40;20.13;;;;;;;;;;5070747;28;20210;-71
2021/03/26 09:21:29;;;;;;;21.60;19.40;;;;;;;;;;5072081;28;20215;-70
2021/03/26 09:24:19;;;;;;;21.43;19.13;;;;;;;;;;5069758;28;20631;-70
2021/03/26 09:27:24;;;;;;;24.53;22.00;;;;;;;;;;5070558;28;20369;-75
2021/03/26 09:30:17;;;;;;;21.13;18.07;;;;;;;;;;5062429;28;20238;-71
2021/03/26 09:33:02;;;;;;;20.77;18.60;;;;;;;;;;5071908;28;20251;-71
2021/03/26 09:35:49;;;;;;;21.95;19.80;;;;;;;;;;5053789;28;20788;-71
2021/03/26 09:38:36;;;;;;;19.37;17.50;;;;;;;;;;5051733;28;20205;-70
2021/03/26 09:41:25;;;;;;;18.43;16.67;;;;;;;;;;5051771;28;20652;-70
2021/03/26 09:44:26;;;;;;;18.40;16.10;;;;;;;;;;5051505;28;20276;-71
2021/03/26 09:47:12;;;;;;;16.00;14.37;;;;;;;;;;5054964;28;20224;-70
2021/03/26 09:50:00;;;;;;;18.13;15.30;;;;;;;;;;5052045;28;20307;-71
2021/03/26 09:52:46;;;;;;;15.93;14.23;;;;;;;;;;5051601;28;20688;-69
2021/03/26 09:55:33;;;;;;;16.57;14.87;;;;;;;;;;5068970;28;20208;-72
2021/03/26 09:58:22;;;;;;;15.87;14.07;;;;;;;;;;5055822;28;20266;-70
2021/03/26 10:01:09;;;;;;;15.37;13.10;;;;;;;;;;5055829;28;20220;-70
2021/03/26 10:03:55;;;;;;;14.83;12.70;;;;;;;;;;5068872;28;20228;-73
2021/03/26 10:06:45;;;;;;;14.83;11.27;;;;;;;;;;5060516;28;20305;-66
2021/03/26 10:09:38;;;;;;;13.07;10.97;;;;;;;;;;5063717;28;20587;-69
2021/03/26 10:12:24;;;;;;;12.53;10.83;;;;;;;;;;5063031;28;20197;-69
2021/03/26 10:15:19;;;;;;;13.30;10.77;;;;;;;;;;5067789;28;20200;-69
2021/03/26 10:18:07;;;;;;;12.77;9.63;;;;;;;;;;5057648;28;20882;-70
2021/03/26 10:20:53;;;;;;;12.98;10.88;;;;;;;;;;5069502;28;20414;-69
2021/03/26 10:23:38;;;;;;;13.17;9.63;;;;;;;;;;5064540;28;20276;-70
2021/03/26 10:26:26;;;;;;;11.20;9.77;;;;;;;;;;5069470;28;20571;-68
2021/03/26 10:29:18;;;;;;;11.03;8.37;;;;;;;;;;5070177;28;20311;-68
2021/03/26 10:32:07;;;;;;;9.30;8.30;;;;;;;;;;5059973;28;20281;-68
2021/03/26 10:34:52;;;;;;;10.70;8.37;;;;;;;;;;5070333;28;20216;-67
2021/03/26 10:37:39;;;;;;;10.03;8.20;;;;;;;;;;5060177;28;20236;-70
2021/03/26 10:40:26;;;;;;;10.10;8.07;;;;;;;;;;5049550;28;20205;-70
2021/03/26 10:43:15;;;;;;;8.93;7.97;;;;;;;;;;5051566;28;20268;-69
2021/03/26 10:46:02;;;;;;;12.80;8.30;;;;;;;;;;5068369;28;20211;-69
2021/03/26 10:48:49;;;;;;;10.90;7.63;;;;;;;;;;5050845;28;20216;-69
2021/03/26 10:51:54;;;;;;;11.33;7.80;;;;;;;;;;5050992;28;20197;-70
2021/03/26 10:54:43;;;;;;;10.57;8.97;;;;;;;;;;5068834;28;20232;-68
2021/03/26 10:57:33;;;;;;;9.27;7.53;;;;;;;;;;5067191;28;20842;-69
2021/03/26 11:00:22;;;;;;;9.60;7.57;;;;;;;;;;5050569;28;20285;-68
2021/03/26 11:03:08;;;;;;;9.80;6.70;;;;;;;;;;5066432;28;20352;-66
2021/03/26 11:05:54;;;;;;;10.23;7.40;;;;;;;;;;5065609;28;20424;-67
2021/03/26 11:08:44;;;;;;;9.87;5.90;;;;;;;;;;5061249;28;20481;-67
2021/03/26 11:11:44;;;;;;;6.50;5.07;;;;;;;;;;5063457;28;20240;-67
2021/03/26 11:14:37;;;;;;;8.17;5.73;;;;;;;;;;5059235;28;20229;-68
2021/03/26 11:17:29;;;;;;;10.20;6.27;;;;;;;;;;5065722;28;20289;-67
2021/03/26 11:20:22;;;;;;;7.97;5.67;;;;;;;;;;5067507;28;20577;-67
2021/03/26 11:23:12;;;;;;;9.77;5.83;;;;;;;;;;5069187;28;20220;-68
2021/03/26 11:26:08;;;;;;;8.80;5.87;;;;;;;;;;5068018;28;20613;-67
2021/03/26 11:28:59;;;;;;;7.87;6.07;;;;;;;;;;5053291;28;20283;-65
2021/03/26 11:31:48;;;;;;;7.70;5.37;;;;;;;;;;5056873;28;20205;-67
2021/03/26 11:34:38;;;;;;;8.03;5.37;;;;;;;;;;5070332;28;20258;-67
2021/03/26 11:37:23;;;;;;;8.60;4.30;;;;;;;;;;5069578;28;20193;-67
2021/03/26 11:40:15;;;;;;;6.87;4.20;;;;;;;;;;5070461;28;20223;-67
2021/03/26 11:43:08;;;;;;;6.70;4.13;;;;;;;;;;5074383;28;20228;-67
2021/03/26 11:45:58;;;;;;;6.60;4.13;;;;;;;;;;5073914;28;20205;-67
2021/03/26 11:48:51;;;;;;;7.40;4.53;;;;;;;;;;5073225;28;20503;-67
2021/03/26 11:51:38;;;;;;;8.50;4.10;;;;;;;;;;5073956;28;20283;-67
2021/03/26 11:54:25;;;;;;;7.87;4.50;;;;;;;;;;5073962;28;20715;-67
2021/03/26 11:57:14;;;;;;;7.27;3.80;;;;;;;;;;5073428;28;20197;-67
2021/03/26 12:00:04;;;;;;;11.33;4.50;;;;;;;;;;5073886;28;20286;-68
2021/03/26 12:02:53;;;;;;;5.50;3.80;;;;;;;;;;5073935;28;20272;-67
2021/03/26 12:06:00;;;;;;;5.07;4.00;;;;;;;;;;5073710;28;20243;-67
2021/03/26 12:08:52;;;;;;;5.30;3.63;;;;;;;;;;5073645;28;20215;-67
2021/03/26 12:11:42;;;;;;;6.40;3.70;;;;;;;;;;5073678;28;20239;-67
2021/03/26 12:14:28;;;;;;;7.67;4.00;;;;;;;;;;5073298;28;20272;-68
2021/03/26 12:17:27;;;;;;;7.20;4.07;;;;;;;;;;5073136;28;20721;-67
2021/03/26 12:20:26;;;;;;;6.47;4.27;;;;;;;;;;5073550;28;20200;-68
2021/03/26 12:23:30;;;;;;;7.10;4.30;;;;;;;;;;5073248;28;20271;-67
2021/03/26 12:26:26;;;;;;;9.27;5.03;;;;;;;;;;5072350;28;20223;-67
2021/03/26 12:29:26;;;;;;;5.50;4.37;;;;;;;;;;5067852;28;20269;-65
2021/03/26 12:32:18;;;;;;;8.60;5.13;;;;;;;;;;5064507;28;20571;-66
2021/03/26 12:35:24;;;;;;;7.57;5.27;;;;;;;;;;5065646;28;20196;-66
2021/03/26 12:38:13;;;;;;;6.30;4.80;;;;;;;;;;5071775;28;20299;-65
2021/03/26 12:41:01;;;;;;;7.53;5.20;;;;;;;;;;5060630;28;20232;-67
2021/03/26 12:43:53;;;;;;;6.70;4.53;;;;;;;;;;5059668;28;20224;-66
2021/03/26 12:46:50;;;;;;;7.97;4.93;;;;;;;;;;5068827;28;20372;-67
2021/03/26 12:49:36;;;;;;;8.17;4.70;;;;;;;;;;5062141;28;20197;-69
2021/03/26 12:52:28;;;;;;;8.03;5.70;;;;;;;;;;5070481;28;20220;-67
2021/03/26 12:55:17;;;;;;;9.53;5.23;;;;;;;;;;5072362;28;20204;-66
2021/03/26 12:58:06;;;;;;;8.90;5.80;;;;;;;;;;5052120;28;20619;-65
2021/03/26 13:00:54;;;;;;;7.00;6.00;;;;;;;;;;5057930;28;20208;-69
2021/03/26 13:03:42;;;;;;;8.43;6.40;;;;;;;;;;5067388;28;20246;-66
2021/03/26 13:06:28;;;;;;;12.03;5.63;;;;;;;;;;5063026;28;20212;-66
2021/03/26 13:09:19;;;;;;;10.83;5.50;;;;;;;;;;5071278;28;20711;-66
2021/03/26 13:12:09;;;;;;;9.50;5.73;;;;;;;;;;5069067;28;20208;-68
2021/03/26 13:14:55;;;;;;;8.53;5.67;;;;;;;;;;5071694;28;20201;-66
2021/03/26 13:17:40;;;;;;;6.70;5.35;;;;;;;;;;5067831;28;20420;-66
2021/03/26 13:20:24;;;;;;;9.57;5.33;;;;;;;;;;5052346;28;20205;-68
2021/03/26 13:23:15;;;;;;;10.90;4.87;;;;;;;;;;5067865;28;20228;-67
2021/03/26 13:26:02;;;;;;;7.30;4.70;;;;;;;;;;5071264;28;20682;-65
2021/03/26 13:28:48;;;;;;;6.40;4.37;;;;;;;;;;5071737;28;20572;-67
2021/03/26 13:31:33;;;;;;;7.17;4.27;;;;;;;;;;5072027;28;20732;-66
2021/03/26 13:34:21;;;;;;;6.73;4.30;;;;;;;;;;5071860;28;20363;-66
2021/03/26 13:37:12;;;;;;;7.77;4.60;;;;;;;;;;5071487;28;20247;-66
2021/03/26 13:40:03;;;;;;;6.67;4.30;;;;;;;;;;5072030;28;20693;-66
2021/03/26 13:42:50;;;;;;;8.17;4.30;;;;;;;;;;5071895;28;20644;-66
2021/03/26 13:45:44;;;;;;;8.05;4.70;;;;;;;;;;5071542;28;20541;-66
2021/03/26 13:48:30;;;;;;;7.57;4.00;;;;;;;;;;5071474;28;20760;-66
2021/03/26 13:51:17;;;;;;;6.00;3.43;;;;;;;;;;5071771;28;20200;-66
2021/03/26 13:54:09;;;;;;;5.43;3.90;;;;;;;;;;5071411;28;20274;-66
2021/03/26 13:56:55;;;;;;;6.77;3.43;;;;;;;;;;5071662;28;20200;-66
2021/03/26 13:59:40;;;;;;;7.82;3.55;;;;;;;;;;5070967;28;20692;-66
2021/03/26 14:02:27;;;;;;;6.30;3.73;;;;;;;;;;5071609;28;20204;-66
2021/03/26 14:05:18;;;;;;;4.90;3.30;;;;;;;;;;5071053;28;20200;-66
2021/03/26 14:08:05;;;;;;;5.83;3.50;;;;;;;;;;5070753;28;20609;-66
2021/03/26 14:11:00;;;;;;;4.17;2.80;;;;;;;;;;5071358;28;20289;-66
2021/03/26 14:13:46;;;;;;;5.73;2.47;;;;;;;;;;5071314;28;20575;-66
2021/03/26 14:16:38;;;;;;;4.70;2.90;;;;;;;;;;5070858;28;20269;-66
2021/03/26 14:19:28;;;;;;;5.23;3.17;;;;;;;;;;5071647;28;20207;-66
2021/03/26 14:22:16;;;;;;;5.03;2.80;;;;;;;;;;5071036;28;20255;-66
2021/03/26 14:25:12;;;;;;;4.63;2.43;;;;;;;;;;5071382;28;20205;-66
2021/03/26 14:28:03;;;;;;;7.20;2.33;;;;;;;;;;5070524;28;20761;-66
2021/03/26 14:30:52;;;;;;;4.33;2.50;;;;;;;;;;5071084;28;20215;-66
2021/03/26 14:33:38;;;;;;;3.20;2.00;;;;;;;;;;5071115;28;20274;-66
2021/03/26 14:36:24;;;;;;;3.33;2.30;;;;;;;;;;5070589;28;20555;-66
2021/03/26 14:39:17;;;;;;;2.30;2.07;;;;;;;;;;5070992;28;20204;-66
2021/03/26 14:42:03;;;;;;;2.60;2.30;;;;;;;;;;5070983;28;20204;-66
2021/03/26 14:44:50;;;;;;;4.80;2.72;;;;;;;;;;5069251;28;20732;-66
2021/03/26 14:47:35;;;;;;;3.63;2.47;;;;;;;;;;5070174;28;20314;-66
2021/03/26 14:50:22;;;;;;;3.77;2.57;;;;;;;;;;5071008;28;20204;-66
2021/03/26 14:53:12;;;;;;;4.63;2.40;;;;;;;;;;5070737;28;20294;-66
2021/03/26 14:56:01;;;;;;;2.93;2.50;;;;;;;;;;5070460;28;20694;-66
2021/03/26 14:58:50;;;;;;;4.63;2.40;;;;;;;;;;5070736;28;20252;-66
2021/03/26 15:01:35;;;;;;;3.50;2.50;;;;;;;;;;5071329;28;20216;-66
2021/03/26 15:04:24;;;;;;;5.23;2.70;;;;;;;;;;5070748;28;20215;-66
2021/03/26 15:07:10;;;;;;;5.47;2.53;;;;;;;;;;5070094;28;20714;-66
2021/03/26 15:09:59;;;;;;;4.33;2.40;;;;;;;;;;5070679;28;20228;-66
2021/03/26 15:12:46;;;;;;;4.03;2.67;;;;;;;;;;5070792;28;20411;-66
2021/03/26 15:15:39;;;;;;;4.77;2.83;;;;;;;;;;5070817;28;20276;-66
2021/03/26 15:18:38;;;;;;;6.93;2.67;;;;;;;;;;5074905;28;20207;-66
2021/03/26 15:21:27;;;;;;;4.10;2.80;;;;;;;;;;5074364;28;20200;-66
2021/03/26 15:24:26;;;;;;;3.80;2.80;;;;;;;;;;5074714;28;20258;-66
2021/03/26 15:27:18;;;;;;;4.72;2.90;;;;;;;;;;5068198;28;20518;-66
2021/03/26 15:30:14;;;;;;;5.80;2.97;;;;;;;;;;5074262;28;20204;-66
2021/03/26 15:33:03;;;;;;;6.60;2.87;;;;;;;;;;5074367;28;20232;-66
2021/03/26 15:35:55;;;;;;;3.63;2.63;;;;;;;;;;5074451;28;20287;-66
2021/03/26 15:38:45;;;;;;;3.87;3.00;;;;;;;;;;5074305;28;20205;-66
2021/03/26 15:41:31;;;;;;;3.20;2.77;;;;;;;;;;5074510;28;20228;-66
2021/03/26 15:44:19;;;;;;;6.00;3.07;;;;;;;;;;5074204;28;20244;-66
2021/03/26 15:47:05;;;;;;;5.87;3.30;;;;;;;;;;5073485;28;20773;-66
2021/03/26 15:50:00;;;;;;;6.57;3.10;;;;;;;;;;5074090;28;20204;-66
2021/03/26 15:52:47;;;;;;;4.17;2.97;;;;;;;;;;5074073;28;20422;-66
2021/03/26 15:55:40;;;;;;;4.07;3.00;;;;;;;;;;5073999;28;20228;-66
2021/03/26 15:58:49;;;;;;;5.47;3.43;;;;;;;;;;5073581;28;20475;-66
2021/03/26 16:01:48;;;;;;;5.53;3.50;;;;;;;;;;5066092;28;20465;-66
2021/03/26 16:04:48;;;;;;;3.70;3.40;;;;;;;;;;5073955;28;20212;-66
2021/03/26 16:07:46;;;;;;;4.73;3.10;;;;;;;;;;5073156;28;20225;-66
2021/03/26 16:10:41;;;;;;;4.20;3.27;;;;;;;;;;5073739;28;20251;-65
2021/03/26 16:13:39;;;;;;;6.00;3.90;;;;;;;;;;5072416;28;20450;-65
2021/03/26 16:16:33;;;;;;;5.30;3.67;;;;;;;;;;5073057;28;20255;-65
2021/03/26 16:19:43;;;;;;;4.57;3.17;;;;;;;;;;5073466;28;20605;-66
2021/03/26 16:22:39;;;;;;;4.43;3.53;;;;;;;;;;5073442;28;20256;-65
2021/03/26 16:25:37;;;;;;;6.17;3.50;;;;;;;;;;5073515;28;20200;-65
2021/03/26 16:28:28;;;;;;;5.63;3.50;;;;;;;;;;5072904;28;20260;-66
2021/03/26 16:31:44;;;;;;;5.60;3.50;;;;;;;;;;5073347;28;20275;-65
2021/03/26 16:34:33;;;;;;;4.97;3.60;;;;;;;;;;5073292;28;20235;-65
2021/03/26 16:37:23;;;;;;;3.80;3.50;;;;;;;;;;5073325;28;20201;-65
2021/03/26 16:40:16;;;;;;;6.97;3.80;;;;;;;;;;5073011;28;20509;-65